»·PEaware :: N969DA KAVX-KSAN

N969DA :: KAVX-KSAN

FLIGHT INFORMATION

Flight Status: Arrived
Operator: Privately registered:
United States
More flights under this callsign
Pilot: Anonymous 20880 (20880)
Aircraft: Unknown
(DA62)
More flights by this aircraft type
Origin: KAVX Catalina
United States
Destination: KSAN San Diego Intl-Lindbergh
United States
More flights between these airports :: More routes between these airports
Route: SXC V208 OCN V23 MZB
File this flight plan on PilotEdge
Remarks: TEC route CSTP56; I8 rating
Altitude:
(Current/Filed)
5,000ft
Speed:
(Current/Filed)
150kts
Departed: 30-Dec-18 10:59 PM
Arrived: 30-Dec-18 11:50 PM
Distance/Time
Traveled:
74nm/0:50
Distance/Time
To Go:
Arrived

Flight Plot

Page will automatically refresh every two minutes.


Map Options




Map Legend


Flown Route
Filed Route
Departure Airport
Arrival Airport
Navaid (VOR, NDB)
Fix

Horizontal Profiles

Position Reports

Time Latitude Longitude Heading Altitude Ground
Speed
30-Dec-18 22:43 33.403292 -118.415954 45 1551ft 0kts
30-Dec-18 22:44 33.403292 -118.415954 45 1551ft 0kts
30-Dec-18 22:45 33.403292 -118.415954 45 1551ft 0kts
30-Dec-18 22:46 33.403292 -118.415954 45 1551ft 0kts
30-Dec-18 22:47 33.403292 -118.415954 45 1551ft 0kts
30-Dec-18 22:48 33.403292 -118.415954 45 1551ft 0kts
30-Dec-18 22:49 33.403292 -118.415954 45 1551ft 0kts
30-Dec-18 22:50 33.403292 -118.415954 45 1551ft 0kts
30-Dec-18 22:51 33.403292 -118.415954 45 1551ft 0kts
30-Dec-18 22:52 33.403292 -118.415954 45 1551ft 0kts
30-Dec-18 22:53 33.403292 -118.415954 45 1551ft 0kts
30-Dec-18 22:54 33.404022 -118.415012 15 1544ft 14kts
30-Dec-18 22:55 33.407117 -118.411483 52 1500ft 0kts
30-Dec-18 22:56 33.407422 -118.411665 235 1501ft 2kts
30-Dec-18 22:57 33.407408 -118.411688 234 1501ft 0kts
30-Dec-18 22:58 33.397020 -118.428599 232 2006ft 99kts
30-Dec-18 22:59 33.377689 -118.459731 232 2936ft 123kts
30-Dec-18 23:00 33.356536 -118.448640 93 3938ft 133kts
30-Dec-18 23:01 33.357138 -118.404042 91 4922ft 137kts
30-Dec-18 23:02 33.357334 -118.353590 68 5004ft 177kts
30-Dec-18 23:03 33.358681 -118.294775 100 4998ft 177kts
30-Dec-18 23:04 33.351489 -118.239213 95 4999ft 161kts
30-Dec-18 23:05 33.344690 -118.187245 95 5002ft 156kts
30-Dec-18 23:06 33.337920 -118.135947 95 5002ft 156kts
30-Dec-18 23:07 33.331133 -118.084748 95 5003ft 155kts
30-Dec-18 23:08 33.324351 -118.033705 95 5004ft 155kts
30-Dec-18 23:09 33.317570 -117.982859 95 5005ft 154kts
30-Dec-18 23:10 33.310832 -117.932494 95 5006ft 154kts
30-Dec-18 23:11 33.304111 -117.882412 96 5007ft 153kts
30-Dec-18 23:12 33.297386 -117.832217 96 5008ft 152kts
30-Dec-18 23:13 33.290642 -117.782135 95 5014ft 154kts
30-Dec-18 23:14 33.283757 -117.731215 94 5020ft 157kts
30-Dec-18 23:15 33.276651 -117.678838 94 5026ft 161kts
30-Dec-18 23:16 33.269374 -117.625392 94 5032ft 165kts
30-Dec-18 23:18 33.261845 -117.570414 95 5035ft 168kts
30-Dec-18 23:19 33.254244 -117.515145 95 5035ft 169kts
30-Dec-18 23:20 33.246641 -117.459977 94 5034ft 168kts
30-Dec-18 23:21 33.228689 -117.414288 153 5033ft 160kts
30-Dec-18 23:22 33.185609 -117.394580 156 5032ft 169kts
30-Dec-18 23:23 33.141412 -117.375841 155 5028ft 167kts
30-Dec-18 23:24 33.097960 -117.357535 155 4981ft 166kts
30-Dec-18 23:25 33.054821 -117.339409 156 4983ft 164kts
30-Dec-18 23:26 33.011769 -117.321340 156 4983ft 164kts
30-Dec-18 23:27 32.968856 -117.303349 156 4982ft 164kts
30-Dec-18 23:28 32.926384 -117.285571 156 4981ft 163kts
30-Dec-18 23:29 32.884711 -117.267936 155 4979ft 161kts
30-Dec-18 23:30 32.843172 -117.250460 155 4978ft 159kts
30-Dec-18 23:31 32.809714 -117.223845 102 4982ft 149kts
30-Dec-18 23:32 32.800799 -117.175450 100 4979ft 150kts
30-Dec-18 23:33 32.791615 -117.126903 100 4981ft 151kts
30-Dec-18 23:34 32.782165 -117.078296 100 4984ft 152kts
30-Dec-18 23:35 32.772673 -117.029738 100 4987ft 152kts
30-Dec-18 23:36 32.763080 -116.980790 100 4990ft 153kts
30-Dec-18 23:36 32.755062 -116.939965 100 4991ft 153kts
30-Dec-18 23:38 32.743792 -116.882655 100 4991ft 152kts
30-Dec-18 23:39 32.734685 -116.836772 100 4989ft 135kts
30-Dec-18 23:40 32.705050 -116.826301 200 4988ft 147kts
30-Dec-18 23:40 32.675333 -116.841879 213 4972ft 135kts
30-Dec-18 23:41 32.663226 -116.883234 250 4984ft 133kts
30-Dec-18 23:43 32.668907 -116.931507 294 4978ft 141kts
30-Dec-18 23:43 32.679100 -116.966848 287 4166ft 142kts
30-Dec-18 23:44 32.689546 -117.009275 286 3686ft 135kts
30-Dec-18 23:45 32.700673 -117.053636 285 2843ft 159kts
30-Dec-18 23:46 32.711361 -117.098487 284 1754ft 115kts
30-Dec-18 23:47 32.720412 -117.136888 284 932ft 113kts
30-Dec-18 23:48 32.729290 -117.172163 284 235ft 117kts
30-Dec-18 23:49 32.734188 -117.187815 76 17ft 0kts
30-Dec-18 23:50 32.733474 -117.184497 87 17ft 14kts
30-Dec-18 23:51 32.734835 -117.183823 22 17ft 0kts

Navigation Log

Ident Type
Flight plan parsing failed, navigation log unavailable